Time;durP1;ratioP1;P1;durP2;ratioP2;P2;SDS_P1;SDS_P2;PMS_P1;PMS_P2;Temp;Humidity;BMP_temperature;BMP_pressure;BME280_temperature;BME280_humidity;BME280_pressure;Samples;Min_cycle;Max_cycle;Signal;HPM_P1;HPM_P2
2022/03/19 00:01:48;;;;;;;;;;;10.30;43.40;;;8.70;46.78;104167.94;8364920;28;20025;-79
2022/03/19 00:06:11;;;;;;;;;;;10.30;43.10;;;8.71;46.41;104176.63;8343927;28;19925;-80
2022/03/19 00:10:32;;;;;;;;;;;10.40;43.50;;;8.64;46.46;104166.16;8364272;28;19916;-79
2022/03/19 00:14:54;;;;;;;;;;;10.30;43.10;;;8.64;46.59;104167.84;8342480;28;20007;-79
2022/03/19 00:19:15;;;;;;;;;;;10.30;43.00;;;8.54;46.53;104166.06;8354896;28;19917;-79
2022/03/19 00:23:37;;;;;;;;;;;10.40;43.20;;;8.55;46.26;104179.06;8352848;28;20019;-79
2022/03/19 00:27:58;;;;;;;;;;;10.20;43.20;;;8.48;46.41;104179.00;8344602;28;20007;-80
2022/03/19 00:32:20;;;;;;;;;;;10.20;43.40;;;8.43;46.52;104175.50;8345450;28;20015;-79
2022/03/19 00:36:42;;;;;;;;;;;10.00;42.90;;;8.33;46.66;104164.94;8338619;28;20003;-79
2022/03/19 00:41:04;;;;;;;;;;;10.00;43.00;;;8.28;46.50;104166.63;8346730;28;20003;-79
2022/03/19 00:45:27;;;;;;;;;;;9.90;43.10;;;8.26;46.34;104165.72;8335011;28;19927;-79
2022/03/19 00:49:48;;;;;;;;;;;9.90;43.20;;;8.24;46.45;104162.28;8359967;28;20433;-79
2022/03/19 00:54:11;;;;;;;;;;;10.10;43.30;;;8.23;46.70;104170.91;8345693;28;20007;-79
2022/03/19 00:58:33;;;;;;;;;;;9.90;43.10;;;8.07;46.31;104143.84;8357421;28;20008;-79
2022/03/19 01:02:55;;;;;;;;;;;9.70;43.00;;;8.09;46.39;104146.47;8342754;28;20011;-79
2022/03/19 01:07:17;;;;;;;;;;;9.80;43.10;;;8.04;46.74;104149.03;8363349;28;20435;-79
2022/03/19 01:11:38;;;;;;;;;;;9.80;43.00;;;8.08;47.21;104162.97;8353763;28;20004;-79
2022/03/19 01:16:00;;;;;;;;;;;9.70;43.00;;;8.05;46.72;104158.59;8341257;28;20015;-79
2022/03/19 01:20:24;;;;;;;;;;;9.70;43.00;;;8.03;46.90;104155.09;8353224;28;20012;-79
2022/03/19 01:24:45;;;;;;;;;;;9.70;43.00;;;7.89;46.94;104136.75;8351925;28;19921;-79
2022/03/19 01:29:07;;;;;;;;;;;9.60;42.90;;;7.87;46.77;104142.78;8347396;28;20008;-79
2022/03/19 01:33:29;;;;;;;;;;;9.60;43.00;;;7.76;46.75;104127.03;8340724;28;20007;-79
2022/03/19 01:37:51;;;;;;;;;;;9.50;42.90;;;7.67;46.94;104124.31;8356835;28;20304;-79
2022/03/19 01:42:24;;;;;;;;;;;9.50;42.90;;;7.70;46.69;104124.38;8344244;28;20012;-79
2022/03/19 01:46:54;;;;;;;;;;;9.40;42.90;;;7.64;46.55;104119.09;8327665;28;20426;-79
2022/03/19 01:51:15;;;;;;;;;;;9.40;42.90;;;7.62;46.70;104123.41;8360418;28;20005;-79
2022/03/19 01:55:37;;;;;;;;;;;9.30;42.80;;;7.64;46.99;104130.38;8324370;28;19936;-79
2022/03/19 01:59:59;;;;;;;;;;;9.60;43.00;;;7.62;46.64;104120.81;8346913;28;20011;-79
2022/03/19 02:04:21;;;;;;;;;;;9.10;42.80;;;7.57;46.38;104118.16;8353943;28;20359;-79
2022/03/19 02:08:44;;;;;;;;;;;9.20;42.80;;;7.46;46.45;104102.41;8345969;28;20011;-79
2022/03/19 02:13:06;;;;;;;;;;;9.20;42.80;;;7.32;46.68;104096.19;8359143;28;20345;-79
2022/03/19 02:17:27;;;;;;;;;;;9.10;42.80;;;7.17;46.83;104067.38;8341770;28;20449;-80
2022/03/19 02:21:50;;;;;;;;;;;8.90;42.70;;;7.20;46.50;104091.66;8333240;28;20351;-79
2022/03/19 02:26:12;;;;;;;;;;;9.00;42.80;;;7.21;46.60;104097.75;8339658;28;19927;-80
2022/03/19 02:30:39;;;;;;;;;;;8.90;42.70;;;7.16;47.12;104102.03;8361702;28;20007;-80
2022/03/19 02:35:01;;;;;;;;;;;8.80;42.70;;;7.03;46.59;104093.19;8313349;28;19999;-79
2022/03/19 02:39:28;;;;;;;;;;;8.80;42.70;;;6.98;46.79;104089.63;8357410;28;20441;-80
2022/03/19 02:43:50;;;;;;;;;;;8.70;42.70;;;6.97;47.20;104103.50;8346434;28;20001;-80
2022/03/19 02:48:11;;;;;;;;;;;8.60;42.70;;;6.79;46.47;104083.31;8354380;28;19921;-80
2022/03/19 02:52:33;;;;;;;;;;;8.50;42.70;;;6.72;46.67;104082.31;8345812;28;20376;-79
2022/03/19 02:56:55;;;;;;;;;;;8.40;42.70;;;6.54;46.74;104063.88;8343571;28;20522;-80
2022/03/19 03:01:17;;;;;;;;;;;8.50;42.70;;;6.75;47.07;104097.06;8361474;28;20000;-79
2022/03/19 03:05:39;;;;;;;;;;;8.70;42.80;;;6.61;46.90;104083.88;8346161;28;19925;-79
2022/03/19 03:10:00;;;;;;;;;;;8.40;42.70;;;6.54;46.92;104087.25;8357892;28;20011;-79
2022/03/19 03:14:22;;;;;;;;;;;8.20;42.60;;;6.46;47.15;104084.53;8361138;28;20015;-80
2022/03/19 03:18:44;;;;;;;;;;;8.20;42.60;;;6.39;47.11;104080.06;8342765;28;20011;-80
2022/03/19 03:23:06;;;;;;;;;;;8.00;42.50;;;6.26;47.24;104071.22;8339770;28;19923;-79
2022/03/19 03:27:27;;;;;;;;;;;7.90;42.50;;;6.26;47.32;104080.72;8340424;28;19925;-80
2022/03/19 03:31:49;;;;;;;;;;;8.00;42.60;;;6.21;46.99;104091.00;8361079;28;20007;-79
2022/03/19 03:36:11;;;;;;;;;;;7.90;42.60;;;5.93;47.46;104061.09;8362508;28;20011;-79
2022/03/19 03:40:32;;;;;;;;;;;7.80;42.60;;;6.04;47.34;104076.88;8360220;28;20003;-80
2022/03/19 03:44:58;;;;;;;;;;;7.70;42.60;;;6.01;47.33;104089.78;8358647;28;19928;-79
2022/03/19 03:49:19;;;;;;;;;;;7.70;42.60;;;5.47;46.70;104008.38;8357646;28;20371;-80
2022/03/19 03:53:43;;;;;;;;;;;7.60;42.60;;;5.84;46.78;104084.28;8352743;28;19931;-80
2022/03/19 03:58:04;;;;;;;;;;;7.60;42.60;;;5.72;46.98;104079.72;8341559;28;20445;-80
2022/03/19 04:02:26;;;;;;;;;;;7.50;42.60;;;5.71;46.71;104090.94;8357179;28;20011;-80
2022/03/19 04:06:47;;;;;;;;;;;7.40;42.60;;;5.43;46.98;104051.50;8359595;28;19929;-80
2022/03/19 04:11:09;;;;;;;;;;;7.40;42.60;;;5.58;46.87;104084.63;8365765;28;20019;-79
2022/03/19 04:15:30;;;;;;;;;;;7.40;42.60;;;5.44;46.87;104065.34;8319200;28;20456;-80
2022/03/19 04:19:52;;;;;;;;;;;7.30;42.60;;;5.41;47.23;104070.47;8358953;28;20484;-80
2022/03/19 04:24:13;;;;;;;;;;;7.30;42.70;;;5.23;47.43;104038.13;8340370;28;20521;-80
2022/03/19 04:28:35;;;;;;;;;;;7.20;42.70;;;5.35;46.98;104070.31;8359537;28;19925;-80
2022/03/19 04:32:59;;;;;;;;;;;7.10;42.70;;;5.35;47.46;104070.31;8361071;28;20011;-80
2022/03/19 04:37:21;;;;;;;;;;;7.10;42.70;;;5.22;47.06;104051.94;8364337;28;20380;-80
2022/03/19 04:41:42;;;;;;;;;;;7.30;42.90;;;5.27;47.32;104054.63;8359205;28;20362;-80
2022/03/19 04:46:04;;;;;;;;;;;7.00;42.80;;;5.23;47.37;104056.28;8355707;28;19921;-80
2022/03/19 04:50:26;;;;;;;;;;;7.00;42.80;;;5.27;47.40;104062.41;8336063;28;20020;-80
2022/03/19 04:54:47;;;;;;;;;;;6.90;42.80;;;5.02;47.21;104030.81;8360762;28;20468;-81
2022/03/19 04:59:11;;;;;;;;;;;6.90;42.80;;;5.17;47.42;104061.31;8360534;28;20355;-80
2022/03/19 05:03:33;;;;;;;;;;;6.80;42.70;;;5.09;47.46;104062.88;8347487;28;20011;-80
2022/03/19 05:07:55;;;;;;;;;;;6.80;42.80;;;5.07;47.14;104060.25;8356497;28;19921;-80
2022/03/19 05:12:29;;;;;;;;;;;6.60;42.70;;;4.63;47.34;103992.84;8361061;28;20034;-80
2022/03/19 05:16:50;;;;;;;;;;;6.80;43.10;;;4.92;47.29;104053.88;8351250;28;20004;-80
2022/03/19 05:21:13;;;;;;;;;;;6.70;42.80;;;4.82;47.53;104050.19;8356545;28;20011;-80
2022/03/19 05:25:35;;;;;;;;;;;6.70;42.90;;;4.85;47.37;104063.22;8349910;28;19928;-80
2022/03/19 05:29:56;;;;;;;;;;;6.60;42.90;;;4.82;47.58;104066.59;8350270;28;20349;-80
2022/03/19 05:34:30;;;;;;;;;;;6.60;42.90;;;4.85;47.46;104079.63;8355821;28;20003;-80
2022/03/19 05:38:51;;;;;;;;;;;6.60;43.00;;;4.73;47.77;104061.22;8353031;28;20007;-80
2022/03/19 05:43:13;;;;;;;;;;;6.90;43.30;;;4.56;47.35;104040.09;8360475;28;20007;-80
2022/03/19 05:47:35;;;;;;;;;;;6.50;43.10;;;4.70;47.48;104066.34;8336178;28;19957;-80
2022/03/19 05:51:57;;;;;;;;;;;6.50;43.10;;;4.64;47.59;104058.41;8358433;28;20008;-80
2022/03/19 05:56:18;;;;;;;;;;;6.40;43.40;;;4.66;47.62;104072.28;8354320;28;20015;-80
2022/03/19 06:00:40;;;;;;;;;;;6.40;43.40;;;4.68;47.55;104080.09;8360068;28;20007;-80
2022/03/19 06:05:02;;;;;;;;;;;6.40;43.40;;;4.70;47.60;104083.56;8359692;28;20015;-80
2022/03/19 06:09:23;;;;;;;;;;;6.50;43.70;;;4.77;47.60;104093.22;8361594;28;19999;-80
2022/03/19 06:13:45;;;;;;;;;;;6.40;43.70;;;4.76;47.76;104092.38;8356317;28;20007;-80
2022/03/19 06:18:07;;;;;;;;;;;6.50;43.60;;;4.78;47.74;104093.28;8344616;28;19924;-80
2022/03/19 06:22:28;;;;;;;;;;;6.70;43.80;;;4.69;47.80;104061.97;8344455;28;20019;-80
2022/03/19 06:26:51;;;;;;;;;;;6.50;43.80;;;4.76;47.96;104063.00;8350533;28;19921;-80
2022/03/19 06:31:12;;;;;;;;;;;6.30;43.80;;;4.85;47.84;104079.63;8353733;28;20381;-80
2022/03/19 06:40:17;;;;;;;;;;;6.70;44.60;;;4.81;47.94;104040.69;8357406;28;20004;-81
2022/03/19 06:44:39;;;;;;;;;;;6.80;44.40;;;5.06;48.21;104062.81;8343114;28;20008;-81
2022/03/19 06:49:00;;;;;;;;;;;6.80;44.50;;;5.20;48.36;104058.81;8341652;28;20381;-81
2022/03/19 06:53:23;;;;;;;;;;;7.00;45.00;;;5.34;48.10;104053.91;8346036;28;20470;-91
2022/03/19 06:57:44;;;;;;;;;;;6.90;45.60;;;5.47;48.39;104052.44;8288504;28;19943;-81
2022/03/19 07:02:06;;;;;;;;;;;7.30;45.20;;;5.61;48.62;104063.94;8330390;28;20016;-90
2022/03/19 07:06:28;;;;;;;;;;;7.40;44.80;;;5.62;48.57;104060.53;8315340;28;19921;-82
2022/03/19 07:10:49;;;;;;;;;;;7.50;44.90;;;5.86;48.86;104075.69;8321686;28;19920;-81
2022/03/19 07:15:12;;;;;;;;;;;7.60;46.00;;;5.93;48.36;104082.75;8324228;28;19923;-82
2022/03/19 07:19:36;;;;;;;;;;;7.80;45.50;;;6.12;48.39;104085.66;8345984;28;20008;-84
2022/03/19 07:23:57;;;;;;;;;;;7.90;45.00;;;6.14;48.36;104060.63;8327584;28;19924;-81
2022/03/19 07:28:19;;;;;;;;;;;8.00;44.90;;;6.09;48.50;104031.13;8341104;28;19999;-85
2022/03/19 07:32:40;;;;;;;;;;;8.00;45.20;;;6.26;48.73;104050.44;8355121;28;20015;-81
2022/03/19 07:37:02;;;;;;;;;;;8.10;44.80;;;6.49;49.09;104065.53;8358902;28;20034;-81
2022/03/19 07:46:04;;;;;;;;;;;8.40;45.50;;;6.56;49.16;104034.50;8357142;28;19931;-81
2022/03/19 07:50:25;;;;;;;;;;;8.50;46.10;;;6.84;48.59;104061.75;8351278;28;20023;-83
2022/03/19 07:54:47;;;;;;;;;;;8.60;47.20;;;6.97;48.61;104068.00;8362996;28;20468;-82
2022/03/19 07:59:08;;;;;;;;;;;8.70;47.50;;;7.10;48.71;104056.00;8357257;28;20011;-81
2022/03/19 08:03:30;;;;;;;;;;;8.90;46.70;;;7.32;49.20;104044.19;8357075;28;20019;-81
2022/03/19 08:07:52;;;;;;;;;;;9.10;46.10;;;7.51;48.99;104051.34;8361795;28;19927;-80
2022/03/19 08:12:13;;;;;;;;;;;9.30;47.70;;;7.72;49.35;104042.00;8362062;28;20012;-77
2022/03/19 08:16:35;;;;;;;;;;;9.40;46.50;;;8.01;49.06;104041.44;8354907;28;20003;-77
2022/03/19 08:20:57;;;;;;;;;;;9.70;47.30;;;8.15;49.07;104025.06;8350340;28;19916;-77
2022/03/19 08:25:19;;;;;;;;;;;9.90;47.10;;;8.34;49.22;104010.44;8338971;28;20015;-77
2022/03/19 08:29:40;;;;;;;;;;;10.20;45.80;;;8.66;49.19;104017.63;8351362;28;19999;-80
2022/03/19 08:34:02;;;;;;;;;;;10.30;45.80;;;8.89;49.18;104003.88;8358676;28;20004;-81
2022/03/19 08:43:03;;;;;;;;;;;11.00;45.90;;;9.40;49.24;104008.41;8353680;28;20003;-80
2022/03/19 08:47:25;;;;;;;;;;;11.00;45.70;;;9.70;49.14;104011.97;8352130;28;20430;-83
2022/03/19 08:51:47;;;;;;;;;;;11.50;45.40;;;9.89;49.22;104003.28;8355904;28;20019;-81
2022/03/19 08:56:08;;;;;;;;;;;11.70;45.10;;;9.91;48.70;103975.44;8359826;28;20015;-81
2022/03/19 09:00:30;;;;;;;;;;;11.90;44.60;;;10.23;48.72;103998.03;8347844;28;20011;-84
2022/03/19 09:04:51;;;;;;;;;;;12.10;44.10;;;10.31;48.69;103992.81;8362640;28;20007;-81
2022/03/19 09:09:14;;;;;;;;;;;12.20;44.20;;;10.63;48.39;104027.59;8351308;28;20312;-80
2022/03/19 09:13:36;;;;;;;;;;;12.40;43.20;;;10.61;48.55;104000.63;8354307;28;20488;-82
2022/03/19 09:17:58;;;;;;;;;;;12.50;43.40;;;10.84;47.98;104010.13;8353984;28;20016;-82
2022/03/19 09:22:19;;;;;;;;;;;12.60;42.80;;;10.89;48.66;104005.75;8362213;28;20011;-81
2022/03/19 09:26:41;;;;;;;;;;;12.70;43.30;;;11.03;48.29;104003.94;8339318;28;19927;-81
2022/03/19 09:31:04;;;;;;;;;;;12.90;43.40;;;10.88;47.97;103974.38;8343766;28;21504;-81
2022/03/19 09:35:26;;;;;;;;;;;13.00;42.70;;;11.07;47.80;104008.31;8336575;28;20012;-81
2022/03/19 09:39:49;;;;;;;;;;;13.00;42.20;;;11.07;48.26;103997.84;8345946;28;20003;-81
2022/03/19 09:44:13;;;;;;;;;;;12.90;42.40;;;11.18;47.94;104012.59;8355307;28;20011;-81
2022/03/19 09:48:35;;;;;;;;;;;12.80;43.00;;;11.15;48.15;104003.03;8338073;28;19921;-81
2022/03/19 09:52:57;;;;;;;;;;;13.00;43.20;;;11.14;47.96;103990.81;8360881;28;20007;-81
2022/03/19 09:57:19;;;;;;;;;;;13.10;42.20;;;11.25;47.93;104009.94;8345267;28;20003;-81
2022/03/19 10:01:40;;;;;;;;;;;13.10;42.00;;;11.21;47.36;104002.16;8354874;28;19995;-81
2022/03/19 10:10:50;;;;;;;;;;;13.00;42.70;;;11.37;47.53;104019.50;8353246;28;19923;-81
2022/03/19 10:15:12;;;;;;;;;;;13.10;42.90;;;11.26;47.62;103993.38;8320436;28;19931;-82
2022/03/19 10:19:48;;;;;;;;;;;13.30;42.60;;;11.36;47.49;104006.41;8300282;28;19939;-89
2022/03/19 10:24:28;;;;;;;;;;;13.10;42.40;;;11.30;47.43;103986.38;8311479;28;20585;-81
2022/03/19 10:29:01;;;;;;;;;;;13.20;42.70;;;11.48;47.26;104006.34;8302072;28;20034;-81
2022/03/19 10:33:27;;;;;;;;;;;13.20;42.90;;;11.49;47.38;104005.47;8336143;28;20472;-81
2022/03/19 10:37:49;;;;;;;;;;;13.30;42.40;;;11.50;47.47;104004.56;8305027;28;20447;-81
2022/03/19 10:42:14;;;;;;;;;;;13.30;42.30;;;11.45;47.30;104009.84;8334145;28;20324;-81
2022/03/19 10:46:36;;;;;;;;;;;13.30;42.60;;;11.33;47.00;103982.88;8324692;28;20452;-82
2022/03/19 10:50:58;;;;;;;;;;;13.30;42.30;;;11.45;47.26;104020.31;8346967;28;19925;-82
2022/03/19 10:55:20;;;;;;;;;;;13.20;42.40;;;11.45;47.33;104012.47;8343742;28;19920;-81
2022/03/19 10:59:42;;;;;;;;;;;13.20;42.80;;;11.48;47.34;104001.97;8328964;28;19921;-80
2022/03/19 11:04:05;;;;;;;;;;;13.20;42.80;;;11.38;47.49;103983.72;8324504;28;19921;-82
2022/03/19 11:08:28;;;;;;;;;;;13.20;42.90;;;11.56;47.37;104007.16;8296893;28;19925;-86
2022/03/19 11:12:53;;;;;;;;;;;13.30;43.00;;;11.55;47.39;103997.56;8306127;28;20381;-80
2022/03/19 11:17:24;;;;;;;;;;;13.30;42.70;;;11.56;47.18;103980.09;8282807;28;19927;-81
2022/03/19 11:21:46;;;;;;;;;;;13.20;43.00;;;11.68;47.52;103993.13;8292587;28;19921;-79
2022/03/19 11:26:10;;;;;;;;;;;13.40;42.70;;;11.65;47.29;103996.63;8310746;28;19925;-81
2022/03/19 11:30:37;;;;;;;;;;;13.40;42.30;;;11.49;47.21;103988.00;8318913;28;19917;-83
2022/03/19 11:34:59;;;;;;;;;;;13.30;42.70;;;11.41;47.56;103973.25;8318559;28;19917;-81
2022/03/19 11:39:21;;;;;;;;;;;13.20;42.80;;;11.43;47.26;103987.19;8338219;28;19928;-82
2022/03/19 11:43:43;;;;;;;;;;;13.20;42.90;;;11.41;47.86;103978.47;8330846;28;20693;-82
2022/03/19 11:48:24;;;;;;;;;;;13.20;42.90;;;11.40;47.04;103975.00;8315485;28;19925;-83
2022/03/19 11:52:46;;;;;;;;;;;13.20;43.10;;;11.48;47.65;103974.94;8332740;28;19916;-83
2022/03/19 11:57:08;;;;;;;;;;;13.20;43.00;;;11.45;47.29;103970.59;8333779;28;20007;-82
2022/03/19 12:01:58;;;;;;;;;;;13.40;43.10;;;11.53;47.63;103957.47;8333666;28;20465;-81
2022/03/19 12:06:36;;;;;;;;;;;13.20;43.00;;;11.45;47.42;103964.47;8320599;28;19921;-82
2022/03/19 12:11:12;;;;;;;;;;;13.20;42.90;;;11.02;47.59;103892.38;8332832;28;19925;-82
2022/03/19 12:15:38;;;;;;;;;;;13.20;42.70;;;11.35;47.02;103958.44;8335479;28;20012;-82
2022/03/19 12:20:07;;;;;;;;;;;13.10;43.00;;;11.29;47.33;103938.44;8333690;28;20394;-83
2022/03/19 12:24:45;;;;;;;;;;;13.10;43.00;;;11.25;47.07;103921.00;8335063;28;19916;-88
2022/03/19 12:29:12;;;;;;;;;;;13.10;43.00;;;11.41;47.43;103932.22;8306294;28;19921;-82
2022/03/19 12:33:34;;;;;;;;;;;13.10;43.00;;;11.28;47.13;103904.41;8322501;28;19993;-85
2022/03/19 12:37:57;;;;;;;;;;;13.30;42.70;;;11.44;47.37;103921.75;8315473;28;19938;-84
2022/03/19 12:42:32;;;;;;;;;;;13.00;41.70;;;11.40;46.81;103909.56;8334187;28;19949;-83
2022/03/19 12:46:58;;;;;;;;;;;13.10;41.70;;;11.42;46.96;103907.81;8316208;28;19920;-83
2022/03/19 12:51:24;;;;;;;;;;;13.20;40.20;;;11.31;46.79;103888.69;8342086;28;20348;-83
2022/03/19 12:55:46;;;;;;;;;;;13.20;39.30;;;11.43;46.63;103888.59;8319957;28;20214;-83
2022/03/19 13:00:09;;;;;;;;;;;13.00;40.70;;;11.58;46.68;103905.06;8327197;28;19940;-83
2022/03/19 13:04:31;;;;;;;;;;;13.20;40.20;;;11.55;46.71;103868.44;8312232;28;20377;-85
2022/03/19 13:08:53;;;;;;;;;;;13.20;40.50;;;11.64;46.74;103879.72;8296925;28;20282;-82
2022/03/19 13:13:14;;;;;;;;;;;13.30;40.60;;;11.46;46.19;103853.69;8322074;28;19966;-83
2022/03/19 13:17:36;;;;;;;;;;;13.20;41.60;;;11.42;46.77;103817.97;8319019;28;19932;-82
2022/03/19 13:21:57;;;;;;;;;;;13.40;41.10;;;11.78;46.19;103858.63;8316141;28;19927;-86
2022/03/19 13:26:21;;;;;;;;;;;13.50;41.70;;;11.78;46.17;103848.16;8321689;28;19927;-85
2022/03/19 13:30:46;;;;;;;;;;;13.60;41.60;;;11.94;46.47;103865.50;8342211;28;19927;-90
2022/03/19 13:35:08;;;;;;;;;;;13.60;40.10;;;11.93;46.43;103855.00;8298546;28;20289;-86
2022/03/19 13:39:35;;;;;;;;;;;13.70;40.40;;;12.01;46.09;103849.69;8288753;28;20104;-83
2022/03/19 13:44:02;;;;;;;;;;;14.10;41.30;;;12.13;46.33;103853.06;8284637;28;20299;-83
2022/03/19 13:48:23;;;;;;;;;;;13.70;41.20;;;12.18;46.37;103858.25;8299188;28;19921;-86
2022/03/19 13:52:46;;;;;;;;;;;13.80;39.30;;;12.21;45.83;103842.50;8293936;28;20008;-84
2022/03/19 13:57:10;;;;;;;;;;;13.80;40.50;;;12.25;46.21;103838.06;8313534;28;20012;-83
2022/03/19 14:01:33;;;;;;;;;;;13.90;39.90;;;12.35;46.00;103835.31;8299244;28;20008;-84
2022/03/19 14:05:54;;;;;;;;;;;14.00;41.20;;;12.35;45.96;103822.22;8314033;28;19996;-83
2022/03/19 14:10:16;;;;;;;;;;;14.00;39.80;;;12.41;45.85;103826.50;8309524;28;20007;-83
2022/03/19 14:14:38;;;;;;;;;;;14.10;39.40;;;12.48;46.00;103814.22;8312760;28;20020;-83
2022/03/19 14:19:01;;;;;;;;;;;14.10;39.60;;;12.52;45.71;103813.25;8325580;28;20008;-82
2022/03/19 14:23:24;;;;;;;;;;;14.10;38.50;;;12.38;45.57;103809.06;8323771;28;19999;-83
2022/03/19 14:27:48;;;;;;;;;;;13.90;39.10;;;12.49;45.43;103816.78;8312613;28;19929;-84
2022/03/19 14:32:11;;;;;;;;;;;14.10;40.10;;;12.48;45.30;103806.34;8299111;28;20304;-84
2022/03/19 14:36:32;;;;;;;;;;;14.30;37.90;;;12.36;45.72;103784.63;8299417;28;20009;-84
2022/03/19 14:40:55;;;;;;;;;;;14.10;38.80;;;12.37;45.52;103778.53;8310994;28;19917;-83
2022/03/19 14:45:21;;;;;;;;;;;14.10;39.80;;;12.44;45.29;103775.81;8301840;28;20028;-83
2022/03/19 14:49:43;;;;;;;;;;;14.20;38.60;;;12.50;45.55;103780.97;8279246;28;20304;-84
2022/03/19 14:54:04;;;;;;;;;;;14.20;38.00;;;12.55;45.02;103779.13;8313330;28;20441;-87
2022/03/19 14:58:26;;;;;;;;;;;14.20;38.50;;;12.51;45.31;103764.38;8325417;28;20011;-84
2022/03/19 15:02:49;;;;;;;;;;;14.20;36.70;;;12.56;45.03;103773.03;8283657;28;20012;-85
2022/03/19 15:07:11;;;;;;;;;;;14.20;37.90;;;12.15;44.61;103695.84;8298820;28;20386;-85
2022/03/19 15:11:32;;;;;;;;;;;14.40;37.40;;;12.14;44.67;103694.97;8313505;28;20015;-86
2022/03/19 15:15:57;;;;;;;;;;;14.30;36.90;;;12.07;44.53;103676.75;8283686;28;20016;-87
2022/03/19 15:20:19;;;;;;;;;;;14.20;38.20;;;12.61;44.73;103763.34;8298423;28;20576;-88
2022/03/19 15:24:40;;;;;;;;;;;14.20;38.20;;;12.64;44.74;103760.66;8311434;28;20012;-85
2022/03/19 15:29:04;;;;;;;;;;;14.20;37.90;;;12.63;44.60;103743.19;8298283;28;20332;-85
2022/03/19 15:33:26;;;;;;;;;;;14.30;38.60;;;12.72;44.56;103755.28;8309934;28;19939;-84
2022/03/19 15:37:48;;;;;;;;;;;14.30;35.80;;;12.74;44.31;103756.13;8302470;28;20028;-85
2022/03/19 15:42:10;;;;;;;;;;;14.30;36.30;;;12.72;44.14;103752.66;8296107;28;20128;-85
2022/03/19 15:46:31;;;;;;;;;;;14.20;35.20;;;12.59;43.94;103733.66;8309599;28;19921;-83
2022/03/19 15:50:53;;;;;;;;;;;14.20;34.80;;;12.67;44.13;103750.13;8334730;28;19935;-83
2022/03/19 15:55:15;;;;;;;;;;;14.10;37.00;;;12.66;44.02;103774.59;8335992;28;20518;-86
2022/03/19 15:59:44;;;;;;;;;;;14.30;37.10;;;12.58;43.90;103753.75;8303827;28;19921;-85
2022/03/19 16:04:05;;;;;;;;;;;14.20;34.00;;;12.57;43.16;103773.00;8303287;28;19921;-86
2022/03/19 16:08:27;;;;;;;;;;;14.20;36.00;;;12.43;43.50;103748.75;8271626;28;19925;-87
2022/03/19 16:12:49;;;;;;;;;;;14.20;37.80;;;12.50;43.70;103763.50;8288042;28;19942;-87
2022/03/19 16:17:10;;;;;;;;;;;14.10;37.80;;;12.36;43.38;103744.47;8312062;28;19921;-86
2022/03/19 16:21:35;;;;;;;;;;;14.20;37.50;;;12.31;43.50;103744.53;8302204;28;19925;-87
2022/03/19 16:25:56;;;;;;;;;;;14.10;36.10;;;12.32;43.37;103734.94;8310268;28;19921;-85
2022/03/19 16:30:18;;;;;;;;;;;14.10;36.10;;;12.29;43.34;103751.56;8302532;28;19928;-85
2022/03/19 16:34:40;;;;;;;;;;;14.00;35.70;;;12.25;43.30;103755.09;8310166;28;19921;-86
2022/03/19 16:39:01;;;;;;;;;;;13.90;36.50;;;12.29;43.44;103766.41;8303289;28;19927;-87
2022/03/19 16:43:25;;;;;;;;;;;14.00;35.30;;;12.20;43.27;103761.28;8321657;28;20797;-85
2022/03/19 16:47:47;;;;;;;;;;;13.90;35.80;;;12.25;43.50;103770.81;8326003;28;19925;-86
2022/03/19 16:52:08;;;;;;;;;;;13.90;36.60;;;12.18;43.37;103769.19;8308988;28;19925;-87
2022/03/19 16:56:30;;;;;;;;;;;13.90;36.80;;;12.14;43.52;103768.31;8288856;28;20577;-86
2022/03/19 17:00:51;;;;;;;;;;;13.80;36.50;;;12.07;43.68;103750.97;8328756;28;20609;-86
2022/03/19 17:05:13;;;;;;;;;;;13.80;36.20;;;11.87;43.29;103737.25;8303054;28;19935;-86
2022/03/19 17:09:35;;;;;;;;;;;13.60;36.90;;;11.93;43.40;103758.97;8318265;28;19955;-86
2022/03/19 17:13:56;;;;;;;;;;;13.70;35.40;;;11.87;43.35;103760.81;8314119;28;19927;-86
2022/03/19 17:18:18;;;;;;;;;;;13.70;36.80;;;11.86;43.31;103774.81;8321273;28;19929;-87
2022/03/19 17:22:40;;;;;;;;;;;13.60;36.40;;;11.78;43.27;103774.00;8307178;28;19921;-87
2022/03/19 17:27:01;;;;;;;;;;;13.50;35.80;;;11.77;42.96;103777.47;8313222;28;19928;-87
2022/03/19 17:31:23;;;;;;;;;;;13.50;36.70;;;11.54;43.35;103747.19;8270679;28;19932;-86
2022/03/19 17:35:44;;;;;;;;;;;13.40;35.30;;;11.68;43.10;103779.31;8337539;28;19924;-86
2022/03/19 17:40:09;;;;;;;;;;;13.40;34.70;;;11.60;43.46;103781.16;8342239;28;20392;-85
2022/03/19 17:44:31;;;;;;;;;;;13.30;36.90;;;11.59;43.75;103794.25;8311116;28;19927;-85
2022/03/19 17:48:59;;;;;;;;;;;13.30;36.40;;;11.54;43.00;103804.78;8318149;28;19928;-87
2022/03/19 17:53:20;;;;;;;;;;;13.20;36.20;;;11.37;43.21;103793.56;8333558;28;19921;-86
2022/03/19 17:57:43;;;;;;;;;;;13.10;37.20;;;11.42;43.14;103803.16;8317785;28;19920;-86
2022/03/19 18:02:05;;;;;;;;;;;13.00;36.90;;;11.28;43.10;103794.53;8273803;28;19927;-86
2022/03/19 18:06:26;;;;;;;;;;;13.00;37.10;;;11.24;43.48;103801.56;8286004;28;20154;-86
2022/03/19 18:10:48;;;;;;;;;;;12.90;37.30;;;11.08;43.31;103782.50;8311387;28;19931;-86
2022/03/19 18:15:10;;;;;;;;;;;12.80;37.90;;;11.10;43.12;103799.91;8298863;28;19936;-86
2022/03/19 18:19:32;;;;;;;;;;;12.70;37.70;;;10.77;43.58;103775.75;8298908;28;20309;-86
2022/03/19 18:23:53;;;;;;;;;;;12.60;37.50;;;10.93;43.26;103810.50;8297787;28;20300;-85
2022/03/19 18:28:15;;;;;;;;;;;12.60;38.10;;;10.74;43.60;103788.84;8296847;28;20293;-86
2022/03/19 18:32:38;;;;;;;;;;;12.50;37.50;;;10.71;43.14;103802.81;8303303;28;19928;-86
2022/03/19 18:36:59;;;;;;;;;;;12.40;37.90;;;10.64;43.57;103806.34;8306140;28;19925;-85
2022/03/19 18:41:21;;;;;;;;;;;12.30;37.80;;;10.52;43.39;103817.72;8317274;28;20502;-86
2022/03/19 18:45:42;;;;;;;;;;;12.20;38.20;;;10.40;43.87;103813.44;8301205;28;20357;-85
2022/03/19 18:50:04;;;;;;;;;;;11.90;38.10;;;9.97;43.50;103750.03;8316779;28;19929;-86
2022/03/19 18:54:26;;;;;;;;;;;12.00;38.30;;;10.31;43.30;103823.91;8295992;28;20503;-86
2022/03/19 18:58:48;;;;;;;;;;;12.00;38.30;;;10.27;43.00;103827.41;8283921;28;20305;-84
2022/03/19 19:03:12;;;;;;;;;;;11.90;37.60;;;10.18;43.30;103830.03;8284695;28;19921;-87
2022/03/19 19:07:34;;;;;;;;;;;11.80;37.20;;;10.08;43.35;103831.81;8316694;28;19921;-86
2022/03/19 19:11:56;;;;;;;;;;;11.70;37.80;;;9.93;43.58;103827.47;8326666;28;19923;-85
2022/03/19 19:16:17;;;;;;;;;;;11.60;38.10;;;9.90;43.21;103837.06;8347443;28;20015;-86
2022/03/19 19:20:40;;;;;;;;;;;11.40;38.40;;;9.62;43.30;103818.00;8291865;28;19917;-86
2022/03/19 19:25:04;;;;;;;;;;;11.30;37.90;;;9.57;43.33;103824.94;8293396;28;19940;-87
2022/03/19 19:29:26;;;;;;;;;;;11.20;38.00;;;9.47;43.54;103822.34;8326923;28;19994;-86
2022/03/19 19:33:50;;;;;;;;;;;11.10;38.30;;;9.41;43.50;103827.56;8307188;28;20292;-86
2022/03/19 19:38:12;;;;;;;;;;;11.10;38.30;;;9.27;43.47;103819.75;8293373;28;20020;-86
2022/03/19 19:42:34;;;;;;;;;;;10.90;38.20;;;9.15;43.56;103822.31;8305879;28;19917;-86
2022/03/19 19:46:59;;;;;;;;;;;10.80;37.80;;;8.97;43.72;103811.91;8298360;28;19921;-86
2022/03/19 19:51:20;;;;;;;;;;;10.70;38.30;;;8.96;43.46;103823.19;8288669;28;20404;-87
2022/03/19 19:55:45;;;;;;;;;;;10.60;37.60;;;8.91;43.50;103823.19;8315323;28;19972;-87
2022/03/19 20:00:21;;;;;;;;;;;10.60;37.90;;;8.76;43.71;103791.88;8304894;28;19923;-86
2022/03/19 20:04:43;;;;;;;;;;;10.50;38.10;;;8.59;43.60;103786.66;8303326;28;20023;-87
2022/03/19 20:09:04;;;;;;;;;;;10.40;38.30;;;8.73;43.52;103828.38;8305572;28;19921;-86
2022/03/19 20:13:26;;;;;;;;;;;10.30;37.60;;;8.64;43.57;103831.78;8318435;28;20016;-86
2022/03/19 20:17:48;;;;;;;;;;;10.30;38.20;;;8.47;43.87;103802.22;8327930;28;19916;-86
2022/03/19 20:22:10;;;;;;;;;;;10.30;38.70;;;8.36;42.99;103802.16;8324991;28;19931;-87
2022/03/19 20:26:34;;;;;;;;;;;10.20;38.20;;;8.22;43.33;103780.41;8307857;28;20007;-86